createdAt,value
2022-10-15T00:01:50.534Z,11.57
2022-10-15T00:06:52.153Z,12.20
2022-10-15T00:11:53.976Z,14.07
2022-10-15T00:16:55.610Z,14.43
2022-10-15T00:21:57.228Z,14.15
2022-10-15T00:26:58.790Z,13.75
2022-10-15T00:32:00.343Z,14.45
2022-10-15T00:37:02.100Z,13.95
2022-10-15T00:42:04.716Z,16.00
2022-10-15T00:47:18.331Z,13.75
2022-10-15T00:52:25.920Z,15.18
2022-10-15T00:57:28.139Z,13.82
2022-10-15T01:02:30.180Z,12.80
2022-10-15T01:07:31.801Z,14.05
2022-10-15T01:13:01.476Z,13.18
2022-10-15T01:18:14.777Z,13.65
2022-10-15T01:23:16.883Z,13.55
2022-10-15T01:28:52.663Z,12.52
2022-10-15T01:33:54.174Z,12.25
2022-10-15T01:39:00.873Z,13.55
2022-10-15T01:44:10.889Z,12.88
2022-10-15T01:49:33.129Z,10.70
2022-10-15T01:54:39.635Z,11.82
2022-10-15T01:59:42.807Z,12.45
2022-10-15T02:04:44.652Z,10.10
2022-10-15T02:10:05.487Z,10.80
2022-10-15T02:15:10.803Z,9.68
2022-10-15T02:20:19.042Z,10.57
2022-10-15T02:25:23.788Z,9.93
2022-10-15T02:30:27.395Z,9.82
2022-10-15T02:35:29.357Z,9.27
2022-10-15T02:40:35.095Z,9.45
2022-10-15T02:45:38.270Z,11.73
2022-10-15T02:50:39.879Z,11.63
2022-10-15T02:55:54.270Z,8.90
2022-10-15T03:00:56.099Z,10.52
2022-10-15T03:05:57.994Z,10.15
2022-10-15T03:11:01.585Z,8.60
2022-10-15T03:16:08.733Z,8.30
2022-10-15T03:21:11.866Z,7.43
2022-10-15T03:26:15.238Z,7.22
2022-10-15T03:31:17.219Z,8.13
2022-10-15T03:36:22.441Z,6.93
2022-10-15T03:41:24.276Z,8.07
2022-10-15T03:46:26.554Z,6.55
2022-10-15T03:51:31.422Z,11.75
2022-10-15T03:56:39.862Z,6.20
2022-10-15T04:01:56.998Z,6.43
2022-10-15T04:06:59.118Z,6.60
2022-10-15T04:12:02.047Z,7.38
2022-10-15T04:17:04.031Z,7.13
2022-10-15T04:22:06.739Z,6.30
2022-10-15T04:27:20.732Z,7.22
2022-10-15T04:32:22.972Z,7.47
2022-10-15T04:37:25.438Z,6.68
2022-10-15T04:42:31.701Z,7.43
2022-10-15T04:47:34.850Z,6.95
2022-10-15T04:52:43.073Z,7.53
2022-10-15T04:57:47.433Z,6.93
2022-10-15T05:02:53.142Z,6.93
2022-10-15T05:08:07.898Z,6.45
2022-10-15T05:13:30.090Z,6.43
2022-10-15T05:18:32.424Z,7.47
2022-10-15T05:23:36.790Z,6.70
2022-10-15T05:29:07.782Z,6.45
2022-10-15T05:34:09.734Z,6.18
2022-10-15T05:39:19.705Z,6.93
2022-10-15T05:44:21.480Z,6.43
2022-10-15T05:49:23.359Z,8.90
2022-10-15T05:54:32.979Z,7.35
2022-10-15T05:59:34.725Z,6.47
2022-10-15T06:04:36.581Z,7.32
2022-10-15T06:09:38.369Z,6.78
2022-10-15T06:14:40.144Z,6.47
2022-10-15T06:19:41.941Z,7.32
2022-10-15T06:24:43.692Z,6.55
2022-10-15T06:29:45.452Z,7.20
2022-10-15T06:34:47.254Z,8.80
2022-10-15T06:39:49.027Z,9.40
2022-10-15T06:44:50.760Z,8.13
2022-10-15T06:49:52.491Z,7.55
2022-10-15T06:54:54.250Z,8.52
2022-10-15T06:59:56.577Z,8.63
2022-10-15T07:04:58.385Z,8.07
2022-10-15T07:10:00.173Z,8.27
2022-10-15T07:15:01.920Z,8.32
2022-10-15T07:20:04.096Z,8.27
2022-10-15T07:25:06.095Z,9.50
2022-10-15T07:30:08.698Z,8.27
2022-10-15T07:35:10.426Z,8.30
2022-10-15T07:40:12.515Z,7.75
2022-10-15T07:45:16.029Z,8.77
2022-10-15T07:50:18.478Z,8.45
2022-10-15T07:55:21.229Z,8.38
2022-10-15T08:00:23.094Z,4.90
2022-10-15T08:05:24.938Z,3.30
2022-10-15T08:10:27.563Z,3.38
2022-10-15T08:15:29.357Z,3.72
2022-10-15T08:20:31.131Z,2.80
2022-10-15T08:25:32.907Z,2.22
2022-10-15T08:30:34.682Z,2.15
2022-10-15T08:35:44.055Z,2.50
2022-10-15T08:40:51.874Z,2.30
2022-10-15T08:46:00.932Z,1.60
2022-10-15T08:51:09.841Z,2.13
2022-10-15T08:56:22.473Z,1.38
2022-10-15T09:01:37.123Z,2.53
2022-10-15T09:06:39.712Z,3.92
2022-10-15T09:12:09.284Z,5.93
2022-10-15T09:17:33.513Z,5.30
2022-10-15T09:22:36.245Z,2.38
2022-10-15T09:27:39.136Z,7.70
2022-10-15T09:32:58.320Z,2.90
2022-10-15T09:38:13.278Z,2.47
2022-10-15T09:43:28.284Z,4.32
2022-10-15T09:48:40.191Z,2.05
2022-10-15T09:54:10.586Z,1.77
2022-10-15T09:59:18.395Z,2.00
2022-10-15T10:04:21.009Z,1.85
2022-10-15T10:09:36.074Z,1.90
2022-10-15T10:14:53.373Z,1.88
2022-10-15T10:20:10.367Z,1.70
2022-10-15T10:25:27.683Z,1.95
2022-10-15T10:30:34.137Z,2.15
2022-10-15T10:35:50.226Z,2.42
2022-10-15T10:40:59.190Z,2.35
2022-10-15T10:46:14.953Z,2.42
2022-10-15T10:51:23.423Z,2.58
2022-10-15T10:56:39.415Z,2.30
2022-10-15T11:01:41.542Z,2.55
2022-10-15T11:07:03.604Z,2.70
2022-10-15T11:12:11.610Z,2.72
2022-10-15T11:17:36.316Z,2.72
2022-10-15T11:22:53.198Z,3.60
2022-10-15T11:28:33.222Z,3.88
2022-10-15T11:33:53.691Z,3.15
2022-10-15T11:39:21.612Z,3.00
2022-10-15T11:44:43.102Z,2.50
2022-10-15T11:49:48.419Z,2.90
2022-10-15T11:55:02.425Z,4.05
2022-10-15T12:00:20.197Z,5.78
2022-10-15T12:05:39.111Z,2.80
2022-10-15T12:11:13.021Z,3.58
2022-10-15T12:16:19.659Z,3.67
2022-10-15T12:21:40.221Z,4.30
2022-10-15T12:26:42.021Z,3.65
2022-10-15T12:32:04.091Z,4.20
2022-10-15T12:37:19.181Z,4.30
2022-10-15T12:42:23.003Z,4.72
2022-10-15T12:47:54.228Z,6.63
2022-10-15T12:53:05.631Z,5.68
2022-10-15T12:58:34.116Z,6.28
2022-10-15T13:03:51.206Z,6.03
2022-10-15T13:09:05.288Z,6.22
2022-10-15T13:14:19.315Z,6.45
2022-10-15T13:19:36.936Z,7.15
2022-10-15T13:24:45.552Z,6.63
2022-10-15T13:29:59.747Z,6.18
2022-10-15T13:35:04.005Z,5.32
2022-10-15T13:40:08.385Z,5.40
2022-10-15T13:45:18.590Z,5.50
2022-10-15T13:50:24.892Z,6.00
2022-10-15T13:55:30.768Z,5.53
2022-10-15T14:00:35.766Z,6.63
2022-10-15T14:05:37.603Z,6.78
2022-10-15T14:10:39.519Z,6.95
2022-10-15T14:15:54.660Z,5.95
2022-10-15T14:20:56.492Z,6.07
2022-10-15T14:26:03.488Z,5.95
2022-10-15T14:31:06.438Z,5.53
2022-10-15T14:36:11.081Z,6.18
2022-10-15T14:41:21.997Z,5.78
2022-10-15T14:46:23.813Z,5.80
2022-10-15T14:51:25.952Z,5.80
2022-10-15T14:56:33.378Z,5.40
2022-10-15T15:01:35.693Z,5.68
2022-10-15T15:06:37.769Z,5.13
2022-10-15T15:11:39.538Z,5.30
2022-10-15T15:16:41.262Z,4.75
2022-10-15T15:21:45.419Z,5.43
2022-10-15T15:26:47.190Z,4.93
2022-10-15T15:31:48.930Z,5.45
2022-10-15T15:36:50.761Z,4.90
2022-10-15T15:41:52.545Z,5.43
2022-10-15T15:46:56.029Z,5.25
2022-10-15T15:51:57.851Z,5.05
2022-10-15T15:56:59.618Z,5.47
2022-10-15T16:02:01.650Z,5.30
2022-10-15T16:07:03.960Z,4.95
2022-10-15T16:12:05.862Z,5.35
2022-10-15T16:17:07.594Z,5.10
2022-10-15T16:22:09.551Z,5.30
2022-10-15T16:27:14.035Z,5.32
2022-10-15T16:32:15.810Z,4.93
2022-10-15T16:37:17.591Z,4.55
2022-10-15T16:42:19.317Z,4.45
2022-10-15T16:47:21.517Z,4.50
2022-10-15T16:52:23.540Z,4.90
2022-10-15T16:57:26.535Z,4.63
2022-10-15T17:02:28.416Z,4.80
2022-10-15T17:07:30.325Z,6.30
2022-10-15T17:12:32.194Z,8.07
2022-10-15T17:17:33.969Z,8.57
2022-10-15T17:22:35.951Z,12.48
2022-10-15T17:27:37.662Z,11.15
2022-10-15T17:32:39.397Z,14.80
2022-10-15T17:37:41.160Z,17.90
2022-10-15T17:42:43.521Z,15.35
2022-10-15T17:47:45.322Z,13.88
2022-10-15T17:52:47.143Z,14.55
2022-10-15T17:57:48.882Z,12.55
2022-10-15T18:02:52.260Z,11.15
2022-10-15T18:07:54.009Z,11.48
2022-10-15T18:12:57.030Z,13.35
2022-10-15T18:17:58.851Z,10.40
2022-10-15T18:23:01.415Z,15.10
2022-10-15T18:28:07.013Z,12.38
2022-10-15T18:33:11.503Z,11.65
2022-10-15T18:38:13.316Z,10.05
2022-10-15T18:43:17.470Z,12.60
2022-10-15T18:48:21.270Z,13.93
2022-10-15T18:53:23.856Z,13.55
2022-10-15T18:58:25.592Z,12.02
2022-10-15T19:03:27.320Z,13.10
2022-10-15T19:08:31.023Z,13.18
2022-10-15T19:13:32.785Z,16.75
2022-10-15T19:18:37.140Z,18.45
2022-10-15T19:23:39.009Z,15.65
2022-10-15T19:28:41.042Z,13.73
2022-10-15T19:33:43.475Z,6.95
2022-10-15T19:38:45.223Z,4.25
2022-10-15T19:43:51.178Z,3.13
2022-10-15T19:48:53.079Z,3.05
2022-10-15T19:53:56.591Z,3.53
2022-10-15T19:59:00.314Z,3.70
2022-10-15T20:04:06.083Z,4.25
2022-10-15T20:09:09.630Z,3.03
2022-10-15T20:14:11.756Z,3.30
2022-10-15T20:19:13.629Z,3.33
2022-10-15T20:24:15.372Z,3.20
2022-10-15T20:29:17.544Z,3.33
2022-10-15T20:34:19.394Z,3.47
2022-10-15T20:39:22.024Z,3.55
2022-10-15T20:44:23.775Z,3.40
2022-10-15T20:49:30.089Z,3.28
2022-10-15T20:54:32.183Z,2.78
2022-10-15T20:59:33.913Z,3.00
2022-10-15T21:04:35.805Z,2.97
2022-10-15T21:09:37.592Z,3.10
2022-10-15T21:14:39.309Z,2.92
2022-10-15T21:19:41.090Z,3.33
2022-10-15T21:24:42.838Z,2.53
2022-10-15T21:29:45.566Z,2.75
2022-10-15T21:34:47.275Z,2.30
2022-10-15T21:39:49.050Z,2.38
2022-10-15T21:44:50.764Z,2.85
2022-10-15T21:49:52.548Z,2.42
2022-10-15T21:54:55.384Z,2.60
2022-10-15T21:59:57.370Z,2.30
2022-10-15T22:04:59.055Z,2.20
2022-10-15T22:10:00.865Z,2.58
2022-10-15T22:15:02.721Z,2.35
2022-10-15T22:20:04.846Z,2.38
2022-10-15T22:25:06.732Z,2.70
2022-10-15T22:30:08.989Z,2.30
2022-10-15T22:35:10.779Z,2.40
2022-10-15T22:40:12.591Z,3.85
2022-10-15T22:45:14.508Z,2.45
2022-10-15T22:50:16.448Z,2.50
2022-10-15T22:55:18.189Z,2.35
2022-10-15T23:00:20.476Z,2.38
2022-10-15T23:05:22.215Z,2.33
2022-10-15T23:10:23.986Z,2.72
2022-10-15T23:15:28.672Z,2.45
2022-10-15T23:20:33.684Z,2.33
2022-10-15T23:25:38.609Z,2.33
2022-10-15T23:30:40.355Z,2.40
2022-10-15T23:35:42.505Z,2.30
2022-10-15T23:40:44.267Z,2.28
2022-10-15T23:45:46.071Z,3.80
2022-10-15T23:50:47.965Z,2.50
2022-10-15T23:55:49.789Z,2.40
